createdAt,value
2019-03-20T07:32:49.957Z,65.95
2019-03-20T07:40:50.391Z,66.97
2019-03-20T07:43:27.042Z,60.15
2019-03-20T07:45:57.556Z,64.22
2019-03-20T07:48:32.055Z,61.40
2019-03-20T07:51:06.252Z,56.50
2019-03-20T07:53:41.389Z,62.08
2019-03-20T07:56:13.181Z,60.65
2019-03-20T07:58:45.677Z,61.28
2019-03-20T08:01:29.509Z,63.55
2019-03-20T08:04:21.917Z,67.95
2019-03-20T08:06:55.956Z,70.40
2019-03-20T08:09:37.022Z,72.40
2019-03-20T08:12:35.384Z,79.17
2019-03-20T08:15:15.257Z,84.45
2019-03-20T08:17:51.468Z,81.20
2019-03-20T08:20:29.902Z,102.53
2019-03-20T08:23:03.170Z,94.25
2019-03-20T08:25:34.110Z,96.97
2019-03-20T08:28:11.924Z,106.32
2019-03-20T08:42:52.441Z,111.08
2019-03-20T08:45:32.546Z,112.57
2019-03-20T08:48:28.179Z,108.37
2019-03-20T09:28:07.688Z,84.03
2019-03-20T09:30:37.613Z,87.45
2019-03-20T09:33:07.484Z,90.80
2019-03-20T09:35:37.332Z,91.20
2019-03-20T09:38:08.093Z,92.02
2019-03-20T09:40:38.070Z,89.62
2019-03-20T09:43:17.548Z,84.22
2019-03-20T09:45:43.213Z,86.53
2019-03-20T09:48:50.347Z,86.67
2019-03-20T09:54:07.669Z,86.53
2019-03-20T09:56:40.395Z,79.90
2019-03-20T09:59:13.749Z,83.65
2019-03-20T10:01:44.802Z,82.25
2019-03-20T10:04:19.364Z,80.75
2019-03-20T10:07:04.055Z,83.35
2019-03-20T10:09:38.417Z,85.15
2019-03-20T10:12:08.780Z,88.50
2019-03-20T10:14:38.698Z,80.85
2019-03-20T10:17:09.495Z,82.78
2019-03-20T10:19:39.393Z,80.35
2019-03-20T10:22:10.054Z,86.85
2019-03-20T10:24:47.197Z,90.22
2019-03-20T10:27:17.048Z,89.85
2019-03-20T10:29:48.736Z,86.10
2019-03-20T10:32:24.610Z,83.40
2019-03-20T10:34:54.997Z,80.25
2019-03-20T10:37:31.402Z,82.70
2019-03-20T10:40:10.123Z,84.55
2019-03-20T10:42:41.147Z,83.97
2019-03-20T10:45:14.917Z,84.10
2019-03-20T10:47:45.752Z,77.80
2019-03-20T10:50:25.533Z,79.07
2019-03-20T10:53:03.309Z,80.57
2019-03-20T10:55:28.659Z,80.53
2019-03-20T10:58:00.814Z,77.60
2019-03-20T11:00:31.760Z,81.70
2019-03-20T11:03:01.686Z,75.25
2019-03-20T11:05:34.859Z,78.02
2019-03-20T11:08:18.153Z,84.42
2019-03-20T11:10:52.657Z,81.20
2019-03-20T11:16:27.667Z,83.30
2019-03-20T11:19:00.455Z,80.70
2019-03-20T11:21:33.760Z,83.60
2019-03-20T11:24:09.456Z,79.62
2019-03-20T11:26:42.088Z,81.57
2019-03-20T11:29:21.326Z,83.65
2019-03-20T11:32:01.707Z,80.30
2019-03-20T11:59:10.240Z,76.85
